Stewart International Airport Newburgh US
ICAO: KSWF
IATA: SWF
Category: Medium
Scheduled Services: Yes

Elevation: 491 ft
TransAlt. 18000 ft.

Airport Communications:
105 AW COMD POST:37.94
ATIS:124.575
NEW YORK CNTR:132.75
GND:121.9
AR OPS:38.5
ARMY OPS:49.75
TWR:121
UNICOM:122.95

KSWF Zoom In..

If you have problems with the map follow the link
https://www.worldairports.se/pages/airport.php?
ICAO=KSWF

Runways:

(A) RW 09 length 11817 ft width 150 ft
ILS 110.10 / hdg 92

(B) RW 16 length 6004 ft width 150 ft
---- / hdg 163

(C) RW 27 length 11817 ft width 150 ft
ILS 109.95 / hdg 272

(D) RW 34 length 6004 ft width 150 ft
---- / hdg 343

Location; KSWF
Day. 17 / Time. 20.45 Zulu
* Altimeter: 30.62
* Temperature: -04° c. -24.8°f.
* Wind from: 310° Speed 06 kn.
Dewpoint: -19° c.
Visibility: 20 Statute Miles.
Clouds: Clear (manual report).

KSWF 172045Z 31006KT 20SM SKC M04/M19 A3062


Wind From 310°
Speed 06 kn.

 
 
jpsmedia worldairports.se 2020   terms of use